Time;durP1;ratioP1;P1;durP2;ratioP2;P2;SDS_P1;SDS_P2;PMS_P1;PMS_P2;Temp;Humidity;BMP_temperature;BMP_pressure;BME280_temperature;BME280_humidity;BME280_pressure;Samples;Min_cycle;Max_cycle;Signal;HPM_P1;HPM_P2
2021/12/27 00:01:41;;;;;;;7.07;6.30;;;;;;;7.04;98.17;94605.00;4998854;28;20218;-81
2021/12/27 00:04:07;;;;;;;6.00;5.43;;;;;;;7.01;98.45;94603.59;4995699;28;20545;-81
2021/12/27 00:06:34;;;;;;;6.23;5.73;;;;;;;7.03;98.03;94600.88;4998304;28;20223;-83
2021/12/27 00:09:00;;;;;;;6.10;5.50;;;;;;;7.02;98.65;94600.06;4998318;28;20234;-80
2021/12/27 00:11:27;;;;;;;5.93;5.43;;;;;;;7.03;98.44;94604.22;4999267;28;20204;-81
2021/12/27 00:13:54;;;;;;;6.07;5.47;;;;;;;7.13;97.71;94603.91;4998636;28;20203;-81
2021/12/27 00:16:23;;;;;;;5.77;5.17;;;;;;;7.15;97.45;94600.22;4999262;28;20228;-80
2021/12/27 00:18:49;;;;;;;6.00;5.47;;;;;;;7.17;97.30;94608.50;4998105;28;20227;-81
2021/12/27 00:21:16;;;;;;;5.93;5.33;;;;;;;7.16;97.15;94601.81;4999163;28;20262;-78
2021/12/27 00:23:42;;;;;;;6.00;5.50;;;;;;;7.16;97.05;94599.25;4997676;28;20200;-81
2021/12/27 00:26:09;;;;;;;5.93;5.40;;;;;;;7.24;97.05;94606.03;4998467;28;20223;-81
2021/12/27 00:28:35;;;;;;;5.87;5.37;;;;;;;7.29;96.56;94603.75;4984083;28;20238;-80
2021/12/27 00:31:03;;;;;;;5.83;5.33;;;;;;;7.25;96.44;94605.84;4988951;28;20195;-81
2021/12/27 00:33:31;;;;;;;6.17;5.43;;;;;;;7.26;96.88;94604.88;4984155;28;20296;-81
2021/12/27 00:35:58;;;;;;;5.70;5.20;;;;;;;7.30;96.98;94597.66;4985838;28;20225;-80
2021/12/27 00:38:24;;;;;;;5.80;5.20;;;;;;;7.32;96.93;94597.44;5001942;28;20231;-81
2021/12/27 00:40:51;;;;;;;5.90;5.30;;;;;;;7.31;96.47;94594.13;5002450;28;20420;-81
2021/12/27 00:43:18;;;;;;;5.60;5.10;;;;;;;7.14;97.69;94595.28;5002759;28;20719;-81
2021/12/27 00:45:45;;;;;;;6.33;5.70;;;;;;;7.00;99.65;94589.22;5000849;28;20314;-81
2021/12/27 00:48:12;;;;;;;5.70;5.20;;;;;;;6.99;99.72;94586.84;5000927;28;20231;-81
2021/12/27 00:50:39;;;;;;;6.20;5.60;;;;;;;7.04;99.46;94580.22;5002214;28;20206;-81
2021/12/27 00:53:06;;;;;;;5.70;5.20;;;;;;;7.08;98.94;94583.22;5002326;28;20207;-81
2021/12/27 00:55:32;;;;;;;5.83;5.33;;;;;;;7.11;98.81;94591.34;4995727;28;20211;-81
2021/12/27 00:57:59;;;;;;;5.53;5.03;;;;;;;7.18;98.26;94584.50;5001531;28;20227;-81
2021/12/27 01:00:26;;;;;;;4.90;4.50;;;;;;;7.24;97.62;94591.47;5001966;28;20223;-82
2021/12/27 01:02:55;;;;;;;4.83;4.40;;;;;;;7.33;97.02;94579.34;5001013;28;20230;-80
2021/12/27 01:05:22;;;;;;;5.77;4.67;;;;;;;7.36;96.67;94583.31;5002765;28;20203;-80
2021/12/27 01:07:50;;;;;;;5.20;4.70;;;;;;;7.24;97.08;94581.22;5001551;28;20223;-82
2021/12/27 01:13:17;;;;;;;5.60;4.90;;;;;;;7.21;98.09;94586.72;4990261;28;20245;-80
2021/12/27 01:15:49;;;;;;;5.23;4.73;;;;;;;7.28;97.38;94594.47;4985944;28;20227;-81
2021/12/27 01:18:17;;;;;;;5.53;4.73;;;;;;;7.36;97.28;94596.13;4994522;28;20219;-81
2021/12/27 01:20:44;;;;;;;4.90;4.50;;;;;;;7.32;96.85;94590.56;5001509;28;20227;-79
2021/12/27 01:23:13;;;;;;;4.63;4.23;;;;;;;7.33;97.39;94594.69;5001614;28;20199;-81
2021/12/27 01:25:40;;;;;;;4.47;4.07;;;;;;;7.35;96.74;94594.53;5000824;28;20242;-81
2021/12/27 01:28:08;;;;;;;4.70;4.30;;;;;;;7.33;96.72;94584.47;5001803;28;20306;-81
2021/12/27 01:30:38;;;;;;;5.93;4.97;;;;;;;7.32;97.11;94594.88;5001971;28;20703;-81
2021/12/27 01:33:06;;;;;;;5.13;4.70;;;;;;;7.30;97.25;94586.63;5001951;28;20923;-81
2021/12/27 01:35:34;;;;;;;4.87;4.43;;;;;;;7.28;96.71;94589.34;5001952;28;20575;-81
2021/12/27 01:38:04;;;;;;;5.33;4.83;;;;;;;7.30;97.15;94599.41;4990021;28;20448;-81
2021/12/27 01:40:32;;;;;;;4.93;4.53;;;;;;;7.31;96.98;94589.00;4999562;28;20723;-80
2021/12/27 01:43:05;;;;;;;5.10;4.60;;;;;;;7.30;96.68;94594.28;5000525;28;20203;-78
2021/12/27 01:45:32;;;;;;;4.77;4.37;;;;;;;7.23;96.88;94589.88;4999011;28;20200;-77
2021/12/27 01:47:59;;;;;;;5.03;4.60;;;;;;;7.23;97.36;94583.97;4999263;28;20227;-79
2021/12/27 01:50:26;;;;;;;5.00;4.50;;;;;;;7.24;97.30;94586.34;4999195;28;20206;-78
2021/12/27 01:52:52;;;;;;;4.87;4.37;;;;;;;7.25;96.94;94582.03;4999200;28;20200;-78
2021/12/27 01:55:19;;;;;;;4.60;4.20;;;;;;;7.21;97.31;94584.16;4998937;28;20211;-78
2021/12/27 01:57:48;;;;;;;5.20;4.40;;;;;;;7.13;97.71;94579.13;4998327;28;20695;-79
2021/12/27 02:00:16;;;;;;;4.90;4.40;;;;;;;7.20;97.38;94579.22;4999003;28;20598;-78
2021/12/27 02:02:44;;;;;;;4.43;4.03;;;;;;;7.24;96.99;94577.88;4999569;28;20196;-78
2021/12/27 02:05:11;;;;;;;4.87;4.40;;;;;;;7.27;97.08;94580.09;4998403;28;20196;-78
2021/12/27 02:07:37;;;;;;;4.03;3.70;;;;;;;7.32;96.82;94576.97;4998432;28;20258;-77
2021/12/27 02:10:04;;;;;;;4.80;4.40;;;;;;;7.33;96.28;94576.78;4999322;28;20214;-78
2021/12/27 02:12:32;;;;;;;5.00;4.60;;;;;;;7.22;97.09;94567.81;4999810;28;20574;-78
2021/12/27 02:15:03;;;;;;;5.30;4.47;;;;;;;7.12;97.93;94569.84;4999421;28;20913;-78
2021/12/27 02:17:29;;;;;;;4.60;4.20;;;;;;;7.09;98.35;94577.91;4998146;28;20234;-78
2021/12/27 02:19:57;;;;;;;4.30;3.90;;;;;;;7.08;98.56;94576.34;4997498;28;20238;-78
2021/12/27 02:22:23;;;;;;;5.20;4.60;;;;;;;7.12;98.93;94569.09;4998778;28;20200;-78
2021/12/27 02:24:50;;;;;;;4.63;4.23;;;;;;;7.11;99.11;94564.94;4998017;28;20207;-77
2021/12/27 02:27:17;;;;;;;4.47;4.07;;;;;;;7.05;99.41;94565.66;4998038;28;20236;-78
2021/12/27 02:29:44;;;;;;;4.50;4.13;;;;;;;7.13;98.89;94568.88;4997309;28;20200;-77
2021/12/27 02:32:11;;;;;;;4.20;3.80;;;;;;;7.19;98.67;94572.50;4998153;28;20202;-78
2021/12/27 02:34:37;;;;;;;4.90;4.10;;;;;;;7.25;98.14;94564.91;4998079;28;20207;-78
2021/12/27 02:37:05;;;;;;;4.53;4.13;;;;;;;7.27;97.90;94562.97;4997598;28;20622;-78
2021/12/27 02:39:31;;;;;;;4.27;3.87;;;;;;;7.30;97.20;94561.81;4997755;28;20200;-78
2021/12/27 02:41:58;;;;;;;4.57;4.10;;;;;;;7.31;96.90;94558.28;4998706;28;20230;-77
2021/12/27 02:44:25;;;;;;;4.03;3.63;;;;;;;7.28;97.35;94553.50;4996673;28;20202;-78
2021/12/27 02:46:51;;;;;;;5.37;4.23;;;;;;;7.24;97.80;94557.41;4996661;28;20230;-78
2021/12/27 02:49:18;;;;;;;4.40;4.00;;;;;;;7.29;97.59;94552.53;4997619;28;20275;-78
2021/12/27 02:51:44;;;;;;;4.20;3.80;;;;;;;7.30;97.76;94561.00;4998493;28;20195;-77
2021/12/27 02:54:12;;;;;;;3.90;3.60;;;;;;;7.32;97.13;94557.28;4998222;28;20203;-78
2021/12/27 02:56:38;;;;;;;4.10;3.70;;;;;;;7.33;96.91;94558.84;4997632;28;20322;-78
2021/12/27 02:59:05;;;;;;;4.30;3.90;;;;;;;7.38;96.59;94561.69;4998797;28;20211;-78
2021/12/27 03:01:31;;;;;;;3.87;3.53;;;;;;;7.43;96.26;94563.69;4996688;28;20230;-78
2021/12/27 03:03:58;;;;;;;4.63;3.80;;;;;;;7.44;95.90;94562.72;4996384;28;20292;-78
2021/12/27 03:06:24;;;;;;;3.83;3.53;;;;;;;7.44;95.90;94560.16;4996843;28;20224;-78
2021/12/27 03:08:51;;;;;;;4.27;3.63;;;;;;;7.46;95.90;94565.91;4997728;28;20717;-78
2021/12/27 03:11:19;;;;;;;5.23;3.83;;;;;;;7.51;95.66;94566.91;4997646;28;20235;-78
2021/12/27 03:13:50;;;;;;;4.97;3.53;;;;;;;7.54;95.33;94560.63;4997051;28;20195;-78
2021/12/27 03:16:18;;;;;;;4.20;3.40;;;;;;;7.53;95.63;94559.06;4996701;28;20230;-80
2021/12/27 03:18:48;;;;;;;3.70;3.37;;;;;;;7.55;95.44;94557.91;4996883;28;20230;-78
2021/12/27 03:21:15;;;;;;;4.03;3.17;;;;;;;7.51;95.21;94550.75;4997730;28;20223;-77
2021/12/27 03:23:43;;;;;;;3.60;3.30;;;;;;;7.52;95.24;94547.22;4996727;28;20237;-78
2021/12/27 03:26:10;;;;;;;3.93;2.87;;;;;;;7.53;94.94;94548.81;4996452;28;20230;-78
2021/12/27 03:28:38;;;;;;;4.47;3.27;;;;;;;7.53;95.28;94553.94;4996658;28;20234;-78
2021/12/27 03:31:07;;;;;;;3.13;2.80;;;;;;;7.50;94.97;94549.19;4997003;28;20210;-79
2021/12/27 03:33:33;;;;;;;2.97;2.60;;;;;;;7.51;95.17;94545.63;4997349;28;20671;-77
2021/12/27 03:36:02;;;;;;;3.20;3.00;;;;;;;7.50;95.31;94547.44;4996215;28;20228;-78
2021/12/27 03:38:30;;;;;;;3.13;2.77;;;;;;;7.52;95.39;94547.22;4996693;28;20595;-78
2021/12/27 03:40:56;;;;;;;2.60;2.40;;;;;;;7.55;95.00;94545.09;4996218;28;20322;-78
2021/12/27 03:43:23;;;;;;;2.97;2.67;;;;;;;7.58;95.00;94544.72;4996682;28;20238;-79
2021/12/27 03:45:51;;;;;;;2.87;2.60;;;;;;;7.56;94.73;94543.31;4995690;28;20222;-78
2021/12/27 03:48:17;;;;;;;3.73;2.80;;;;;;;7.54;94.74;94535.03;4995983;28;20231;-79
2021/12/27 03:50:44;;;;;;;3.10;2.60;;;;;;;7.47;95.09;94539.31;4996909;28;20203;-78
2021/12/27 03:53:12;;;;;;;2.90;2.67;;;;;;;7.40;95.66;94536.69;4996989;28;20215;-78
2021/12/27 03:55:38;;;;;;;3.37;2.60;;;;;;;7.40;95.98;94539.25;4995503;28;20223;-78
2021/12/27 03:58:08;;;;;;;2.80;2.60;;;;;;;7.43;95.67;94535.53;4996634;28;20238;-78
2021/12/27 04:00:47;;;;;;;2.40;2.20;;;;;;;7.44;95.34;94537.91;4995694;28;20687;-78
2021/12/27 04:03:16;;;;;;;3.07;2.77;;;;;;;7.35;95.66;94530.50;4995594;28;20210;-78
2021/12/27 04:05:43;;;;;;;2.60;2.40;;;;;;;7.29;96.43;94526.94;4995372;28;20223;-77
2021/12/27 04:08:10;;;;;;;3.73;3.00;;;;;;;7.26;96.80;94527.28;4995982;28;20231;-78
2021/12/27 04:10:39;;;;;;;3.67;3.30;;;;;;;7.25;97.12;94525.72;4996055;28;20295;-78
2021/12/27 04:13:06;;;;;;;3.10;2.80;;;;;;;7.26;97.25;94532.41;4996243;28;20207;-78
2021/12/27 04:15:33;;;;;;;2.90;2.60;;;;;;;7.29;97.20;94532.06;4996218;28;20204;-78
2021/12/27 04:17:59;;;;;;;2.70;2.40;;;;;;;7.27;96.79;94527.13;4996384;28;20231;-78
2021/12/27 04:20:28;;;;;;;2.57;2.37;;;;;;;7.26;96.28;94535.78;4996399;28;20718;-78
2021/12/27 04:22:54;;;;;;;2.67;2.43;;;;;;;7.28;96.50;94525.34;4996178;28;20707;-78
2021/12/27 04:25:22;;;;;;;2.50;2.30;;;;;;;7.29;96.00;94532.06;4994550;28;20203;-77
2021/12/27 04:27:49;;;;;;;2.50;2.30;;;;;;;7.31;95.80;94531.88;4994766;28;20896;-79
2021/12/27 04:30:17;;;;;;;3.17;2.20;;;;;;;7.21;95.69;94525.28;4994954;28;20191;-78
2021/12/27 04:32:44;;;;;;;1.97;1.87;;;;;;;7.23;95.61;94530.22;4995296;28;20191;-78
2021/12/27 04:35:11;;;;;;;1.90;1.80;;;;;;;7.25;95.49;94530.81;4995439;28;20207;-78
2021/12/27 04:37:39;;;;;;;2.77;2.00;;;;;;;7.28;95.34;94530.47;4995603;28;20245;-79
2021/12/27 04:40:09;;;;;;;2.03;1.93;;;;;;;7.23;94.70;94536.13;4996100;28;20196;-77
2021/12/27 04:42:35;;;;;;;2.10;1.90;;;;;;;7.20;94.92;94539.03;4995710;28;20607;-78
2021/12/27 04:45:05;;;;;;;1.80;1.70;;;;;;;7.20;94.82;94535.69;4994784;28;20191;-78
2021/12/27 04:47:32;;;;;;;1.90;1.80;;;;;;;7.23;94.80;94537.91;4993867;28;20231;-77
2021/12/27 04:49:58;;;;;;;2.67;2.00;;;;;;;7.23;94.24;94538.69;4991797;28;20199;-78
2021/12/27 04:52:25;;;;;;;1.90;1.80;;;;;;;7.28;94.14;94541.50;4991731;28;20202;-77
2021/12/27 04:54:53;;;;;;;2.13;1.93;;;;;;;7.31;93.82;94537.78;4987005;28;20212;-78
2021/12/27 04:57:19;;;;;;;1.97;1.87;;;;;;;7.31;93.68;94542.13;4988946;28;20238;-78
2021/12/27 04:59:45;;;;;;;2.30;2.10;;;;;;;7.27;93.65;94537.34;4994761;28;20203;-78
2021/12/27 05:02:12;;;;;;;2.77;2.13;;;;;;;7.25;93.91;94536.75;4996530;28;20215;-78
2021/12/27 05:04:38;;;;;;;2.97;2.07;;;;;;;7.20;94.36;94530.56;4995419;28;20207;-78
2021/12/27 05:07:05;;;;;;;2.27;2.00;;;;;;;7.22;94.48;94531.19;4994970;28;20237;-78
2021/12/27 05:09:31;;;;;;;2.80;1.90;;;;;;;7.27;94.62;94537.34;4997312;28;20298;-77
2021/12/27 05:11:59;;;;;;;2.70;1.93;;;;;;;7.32;94.04;94533.44;4996457;28;20203;-77
2021/12/27 05:14:26;;;;;;;2.83;2.00;;;;;;;7.27;93.45;94537.34;4995694;28;20210;-77
2021/12/27 05:16:52;;;;;;;2.00;1.90;;;;;;;7.27;93.92;94536.56;4996227;28;20223;-78
2021/12/27 05:19:19;;;;;;;1.87;1.77;;;;;;;7.23;93.76;94527.66;4996830;28;20215;-78
2021/12/27 05:21:45;;;;;;;2.00;1.90;;;;;;;7.26;94.07;94540.88;4996083;28;20219;-78
2021/12/27 05:24:13;;;;;;;2.40;2.20;;;;;;;7.27;93.60;94531.44;4999663;28;20203;-78
2021/12/27 05:26:39;;;;;;;2.57;2.37;;;;;;;7.29;93.89;94532.06;4998835;28;20274;-78
2021/12/27 05:29:07;;;;;;;2.20;2.00;;;;;;;7.32;93.76;94538.56;4999871;28;20211;-78
2021/12/27 05:31:34;;;;;;;2.17;1.97;;;;;;;7.36;93.38;94530.34;4998263;28;20663;-77
2021/12/27 05:34:00;;;;;;;3.90;2.20;;;;;;;7.40;92.84;94529.00;4998384;28;20234;-78
2021/12/27 05:36:27;;;;;;;2.40;2.07;;;;;;;7.40;92.43;94528.22;4989692;28;20224;-78
2021/12/27 05:38:53;;;;;;;1.83;1.73;;;;;;;7.43;92.65;94525.28;4984114;28;20228;-79
2021/12/27 05:41:20;;;;;;;1.90;1.80;;;;;;;7.42;92.18;94521.94;4984768;28;20223;-78
2021/12/27 05:43:47;;;;;;;2.83;1.90;;;;;;;7.40;92.34;94520.53;4985743;28;20493;-78
2021/12/27 05:46:15;;;;;;;3.47;1.90;;;;;;;7.38;92.36;94523.28;4977315;28;20258;-78
2021/12/27 05:48:42;;;;;;;2.30;2.10;;;;;;;7.39;92.20;94526.63;4982379;28;20243;-78
2021/12/27 05:51:08;;;;;;;2.10;1.90;;;;;;;7.41;92.05;94530.59;4989383;28;20724;-77
2021/12/27 05:53:35;;;;;;;2.10;1.90;;;;;;;7.41;92.18;94527.22;4978863;28;20207;-78
2021/12/27 05:56:02;;;;;;;2.20;2.00;;;;;;;7.42;91.92;94521.94;4978646;28;20262;-78
2021/12/27 05:58:28;;;;;;;2.27;2.07;;;;;;;7.39;91.89;94516.38;4980206;28;20353;-78
2021/12/27 06:00:55;;;;;;;2.33;2.13;;;;;;;7.39;91.94;94524.84;4990910;28;20200;-78
2021/12/27 06:03:23;;;;;;;2.00;1.77;;;;;;;7.37;92.07;94516.56;4997720;28;20219;-78
2021/12/27 06:05:49;;;;;;;2.30;2.10;;;;;;;7.40;91.98;94525.66;4997754;28;20229;-78
2021/12/27 06:08:16;;;;;;;2.07;1.80;;;;;;;7.39;91.71;94514.63;4998446;28;20227;-77
2021/12/27 06:10:42;;;;;;;2.00;1.90;;;;;;;7.34;91.86;94511.78;4997393;28;20200;-77
2021/12/27 06:13:09;;;;;;;3.07;2.03;;;;;;;7.34;92.27;94509.25;4977586;28;20568;-78
2021/12/27 06:15:35;;;;;;;2.20;2.00;;;;;;;7.35;92.14;94505.72;4976749;28;20208;-79
2021/12/27 06:18:02;;;;;;;2.20;2.00;;;;;;;7.35;91.77;94512.59;4976614;28;20606;-79
2021/12/27 06:20:30;;;;;;;2.10;1.97;;;;;;;7.39;92.07;94512.06;4977578;28;20204;-77
2021/12/27 06:22:59;;;;;;;1.93;1.70;;;;;;;7.39;91.78;94517.16;4979872;28;20731;-78
2021/12/27 06:25:26;;;;;;;1.80;1.70;;;;;;;7.42;91.75;94513.47;4996170;28;20218;-79
2021/12/27 06:27:53;;;;;;;2.93;2.10;;;;;;;7.42;91.72;94518.56;4981776;28;20224;-77
2021/12/27 06:30:20;;;;;;;3.10;2.03;;;;;;;7.34;91.64;94509.25;4977037;28;20211;-78
2021/12/27 06:32:48;;;;;;;2.90;2.00;;;;;;;7.30;94.52;94507.25;4980720;28;20759;-77
2021/12/27 06:35:16;;;;;;;3.07;2.37;;;;;;;7.25;94.23;94511.13;4988721;28;20222;-79
2021/12/27 06:37:45;;;;;;;2.87;2.50;;;;;;;7.31;93.42;94511.41;4976023;28;20236;-80
2021/12/27 06:40:14;;;;;;;4.13;2.67;;;;;;;7.23;92.15;94507.19;4976454;28;20206;-77
2021/12/27 06:42:42;;;;;;;2.70;2.50;;;;;;;7.26;92.59;94499.13;4977744;28;20313;-78
2021/12/27 06:45:09;;;;;;;2.40;2.20;;;;;;;7.25;92.62;94507.78;4988528;28;20289;-78
2021/12/27 06:47:36;;;;;;;2.50;2.30;;;;;;;7.27;92.46;94511.75;4995771;28;20239;-78
2021/12/27 06:50:03;;;;;;;2.60;2.40;;;;;;;7.26;92.10;94514.50;4997748;28;20273;-78
2021/12/27 06:52:29;;;;;;;2.13;1.93;;;;;;;7.28;91.91;94497.97;4997632;28;20288;-77
2021/12/27 06:54:57;;;;;;;3.40;1.90;;;;;;;7.28;91.37;94499.75;4991750;28;20196;-78
2021/12/27 06:57:23;;;;;;;2.30;2.10;;;;;;;7.30;91.33;94502.13;4994511;28;20246;-77
2021/12/27 06:59:50;;;;;;;2.10;1.90;;;;;;;7.27;91.07;94504.06;4995734;28;20204;-78
2021/12/27 07:02:16;;;;;;;2.13;1.97;;;;;;;7.23;91.18;94507.19;4980344;28;20239;-78
2021/12/27 07:04:46;;;;;;;2.27;2.10;;;;;;;7.20;91.23;94507.53;4984903;28;20200;-78
2021/12/27 07:07:12;;;;;;;3.90;2.20;;;;;;;7.20;90.88;94504.97;4992117;28;20239;-77
2021/12/27 07:09:39;;;;;;;30.90;24.27;;;;;;;7.16;90.62;94503.75;4995945;28;20204;-78
2021/12/27 07:12:08;;;;;;;6.33;5.17;;;;;;;7.12;90.93;94507.66;4995121;28;20195;-77
2021/12/27 07:14:35;;;;;;;5.40;4.57;;;;;;;7.11;91.71;94506.09;4994718;28;20203;-78
2021/12/27 07:17:02;;;;;;;3.60;3.17;;;;;;;7.13;91.61;94511.78;4994287;28;20233;-77
2021/12/27 07:19:29;;;;;;;3.13;2.70;;;;;;;7.11;92.15;94513.75;4991557;28;20200;-78
2021/12/27 07:21:55;;;;;;;3.00;2.70;;;;;;;7.17;91.26;94502.78;4994248;28;20694;-78
2021/12/27 07:24:22;;;;;;;2.70;2.50;;;;;;;7.19;91.34;94506.75;4994246;28;20199;-77
2021/12/27 07:26:49;;;;;;;4.37;2.40;;;;;;;7.22;90.49;94501.25;4992601;28;20250;-77
2021/12/27 07:29:17;;;;;;;3.83;3.23;;;;;;;7.23;90.19;94504.63;4995149;28;20207;-79
2021/12/27 07:31:43;;;;;;;3.53;3.10;;;;;;;7.23;90.39;94502.84;4993398;28;20204;-78
2021/12/27 07:34:10;;;;;;;3.50;3.20;;;;;;;7.26;89.77;94512.72;4993973;28;20428;-78
2021/12/27 07:36:36;;;;;;;3.40;2.80;;;;;;;7.28;89.88;94500.53;4975797;28;20616;-78
2021/12/27 07:39:05;;;;;;;3.00;2.60;;;;;;;7.21;90.07;94497.13;4994215;28;20836;-78
2021/12/27 07:41:31;;;;;;;3.77;2.40;;;;;;;7.21;91.17;94506.56;4994843;28;20697;-78
2021/12/27 07:43:58;;;;;;;3.00;2.67;;;;;;;7.24;90.90;94501.09;4994544;28;20572;-81
2021/12/27 07:46:26;;;;;;;3.33;2.70;;;;;;;7.26;91.65;94502.50;4996835;28;20235;-80
2021/12/27 07:48:52;;;;;;;4.43;4.03;;;;;;;7.34;91.00;94498.19;4995790;28;20445;-80
2021/12/27 07:51:19;;;;;;;3.23;2.90;;;;;;;7.34;91.09;94499.00;4986965;28;20207;-80
2021/12/27 07:53:45;;;;;;;4.03;2.80;;;;;;;7.26;93.65;94494.03;4994612;28;20196;-81
2021/12/27 07:56:13;;;;;;;2.77;2.47;;;;;;;7.33;92.30;94494.06;4995002;28;20239;-80
2021/12/27 07:58:40;;;;;;;3.60;2.80;;;;;;;7.41;91.69;94493.94;4996744;28;20230;-81
2021/12/27 08:01:07;;;;;;;2.97;2.60;;;;;;;7.33;92.13;94482.03;4996431;28;20187;-81
2021/12/27 08:03:35;;;;;;;3.43;3.13;;;;;;;7.30;92.22;94489.31;4994835;28;20223;-81
2021/12/27 08:06:01;;;;;;;3.23;2.93;;;;;;;7.32;92.28;94485.59;4993604;28;20228;-81
2021/12/27 08:08:28;;;;;;;3.17;2.80;;;;;;;7.33;92.06;94492.28;4991909;28;20227;-81
2021/12/27 08:10:55;;;;;;;3.97;2.50;;;;;;;7.38;91.75;94481.50;4993815;28;20203;-81
2021/12/27 08:13:21;;;;;;;3.77;2.70;;;;;;;7.20;93.21;94482.72;4993781;28;20196;-81
2021/12/27 08:15:48;;;;;;;3.90;2.80;;;;;;;7.21;93.35;94479.19;4992923;28;20224;-81
2021/12/27 08:18:14;;;;;;;4.67;2.53;;;;;;;7.26;92.73;94484.56;4992664;28;20224;-78
2021/12/27 08:20:42;;;;;;;3.67;2.70;;;;;;;7.31;92.64;94488.34;4992959;28;20226;-79
2021/12/27 08:23:08;;;;;;;2.50;2.30;;;;;;;7.34;92.11;94481.06;4994700;28;20230;-81
2021/12/27 08:25:35;;;;;;;2.40;2.20;;;;;;;7.37;90.95;94474.81;4995078;28;20671;-80
2021/12/27 08:28:02;;;;;;;2.57;2.37;;;;;;;7.33;91.12;94486.38;4994723;28;20310;-80
2021/12/27 08:30:28;;;;;;;2.93;2.10;;;;;;;7.25;91.46;94480.44;4992984;28;20207;-80
2021/12/27 08:32:57;;;;;;;2.97;2.13;;;;;;;7.21;92.01;94483.53;4998582;28;20596;-80
2021/12/27 08:35:23;;;;;;;2.83;2.27;;;;;;;7.31;92.00;94481.47;4999144;28;20250;-80
2021/12/27 08:37:51;;;;;;;3.47;2.23;;;;;;;7.27;91.67;94481.03;4998066;28;20233;-81
2021/12/27 08:40:18;;;;;;;2.00;1.77;;;;;;;7.24;92.21;94475.47;4999014;28;20223;-81
2021/12/27 08:42:44;;;;;;;2.57;2.20;;;;;;;7.16;92.37;94473.03;4997538;28;20699;-80
2021/12/27 08:45:11;;;;;;;2.90;2.27;;;;;;;7.13;93.13;94471.63;4998700;28;20207;-80
2021/12/27 08:47:38;;;;;;;3.30;2.37;;;;;;;7.04;94.54;94466.81;4995983;28;20231;-79
2021/12/27 08:50:06;;;;;;;2.20;2.00;;;;;;;7.12;94.22;94467.47;4982482;28;20211;-79
2021/12/27 08:52:33;;;;;;;2.43;2.23;;;;;;;7.24;93.58;94472.94;4998600;28;20203;-81
2021/12/27 08:55:03;;;;;;;2.60;2.30;;;;;;;7.28;93.03;94462.16;4995578;28;20207;-80
2021/12/27 08:57:30;;;;;;;2.60;1.90;;;;;;;7.20;93.71;94457.13;4996956;28;20235;-80
2021/12/27 08:59:56;;;;;;;2.77;2.10;;;;;;;7.23;94.51;94467.00;4990942;28;20204;-80
2021/12/27 09:02:23;;;;;;;2.33;2.13;;;;;;;7.36;93.69;94466.31;4999131;28;20219;-80
2021/12/27 09:04:51;;;;;;;3.27;2.50;;;;;;;7.47;93.13;94465.06;4998494;28;20196;-80
2021/12/27 09:07:18;;;;;;;2.43;2.23;;;;;;;7.44;92.93;94458.53;4998324;28;20297;-81
2021/12/27 09:09:45;;;;;;;3.97;2.50;;;;;;;7.35;94.09;94458.81;5000074;28;20214;-80
2021/12/27 09:12:13;;;;;;;3.67;2.47;;;;;;;7.37;94.40;94462.00;4989422;28;20207;-80
2021/12/27 09:14:40;;;;;;;3.27;2.50;;;;;;;7.41;93.88;94466.56;4978739;28;20219;-81
2021/12/27 09:17:07;;;;;;;2.80;2.60;;;;;;;7.45;93.62;94456.75;4994171;28;20238;-80
2021/12/27 09:19:33;;;;;;;3.17;2.70;;;;;;;7.48;93.83;94452.06;4997594;28;20210;-81
2021/12/27 09:22:00;;;;;;;7.67;2.67;;;;;;;7.44;94.56;94447.50;4997348;28;20208;-81
2021/12/27 09:24:28;;;;;;;2.83;2.53;;;;;;;7.45;94.74;94454.19;4996403;28;20250;-81
2021/12/27 09:26:54;;;;;;;2.80;2.50;;;;;;;7.59;93.92;94453.31;4997852;28;20238;-81
2021/12/27 09:29:24;;;;;;;3.77;3.47;;;;;;;7.66;93.84;94446.47;5000772;28;20699;-81
2021/12/27 09:31:51;;;;;;;2.63;2.43;;;;;;;7.69;92.87;94433.31;4999153;28;20783;-81
2021/12/27 09:34:17;;;;;;;3.43;2.70;;;;;;;7.65;92.90;94429.53;4997023;28;20235;-80
2021/12/27 09:36:46;;;;;;;3.47;2.80;;;;;;;7.75;93.53;94434.31;4997179;28;20239;-81
2021/12/27 09:39:13;;;;;;;5.50;2.77;;;;;;;8.10;90.22;94430.78;4997965;28;20195;-80
2021/12/27 09:41:39;;;;;;;4.67;2.97;;;;;;;8.20;88.73;94431.22;4996794;28;20254;-79
2021/12/27 09:44:06;;;;;;;3.23;2.93;;;;;;;8.25;88.80;94434.03;4994620;28;20219;-79
2021/12/27 09:46:34;;;;;;;3.87;2.60;;;;;;;8.42;88.94;94428.59;4995538;28;20215;-79
2021/12/27 09:49:04;;;;;;;3.10;2.77;;;;;;;8.64;88.50;94437.75;4993683;28;20223;-79
2021/12/27 09:51:34;;;;;;;3.83;2.70;;;;;;;8.84;87.02;94432.69;4986761;28;20214;-79
2021/12/27 09:54:03;;;;;;;3.43;2.90;;;;;;;8.83;86.14;94433.66;4994786;28;20207;-79
2021/12/27 09:56:30;;;;;;;3.07;2.67;;;;;;;8.76;85.48;94420.81;4994540;28;20232;-79
2021/12/27 09:58:57;;;;;;;3.83;2.60;;;;;;;8.92;84.29;94422.22;4982849;28;20236;-79
2021/12/27 10:01:24;;;;;;;3.27;2.73;;;;;;;9.14;83.28;94421.06;4993870;28;20211;-79
2021/12/27 10:03:54;;;;;;;3.90;2.57;;;;;;;9.34;82.29;94411.63;4994450;28;20223;-79
2021/12/27 10:06:22;;;;;;;3.07;2.70;;;;;;;9.42;81.52;94408.06;4993410;28;20227;-79
2021/12/27 10:08:51;;;;;;;3.00;2.53;;;;;;;9.50;81.92;94396.78;4993252;28;20719;-79
2021/12/27 10:11:22;;;;;;;3.60;2.60;;;;;;;9.65;81.04;94411.00;4993937;28;20207;-79
2021/12/27 10:14:03;;;;;;;3.70;2.70;;;;;;;9.85;80.81;94405.03;4993747;28;20247;-79
2021/12/27 10:16:31;;;;;;;2.60;2.40;;;;;;;9.95;77.92;94408.78;4994135;28;20234;-79
2021/12/27 10:19:01;;;;;;;3.90;2.50;;;;;;;10.16;78.75;94405.19;4993152;28;20735;-79
2021/12/27 10:21:28;;;;;;;2.70;2.43;;;;;;;10.32;78.30;94416.81;4993492;28;20195;-79
2021/12/27 10:24:06;;;;;;;2.90;2.30;;;;;;;10.51;76.89;94399.72;4993964;28;20253;-79
2021/12/27 10:26:34;;;;;;;3.80;2.30;;;;;;;10.57;75.51;94401.50;4993633;28;20329;-80
2021/12/27 10:29:12;;;;;;;3.50;2.17;;;;;;;10.58;74.92;94395.34;4993072;28;20227;-79
2021/12/27 10:31:58;;;;;;;5.13;2.10;;;;;;;10.72;74.53;94396.84;4993651;28;20302;-79
2021/12/27 10:34:28;;;;;;;3.13;1.93;;;;;;;10.90;75.39;94403.88;4993045;28;20203;-80
2021/12/27 10:37:14;;;;;;;2.83;1.93;;;;;;;10.82;73.42;94397.19;4992230;28;20227;-79
2021/12/27 10:39:53;;;;;;;2.97;1.90;;;;;;;10.62;73.93;94391.34;4993265;28;20219;-80
2021/12/27 10:42:23;;;;;;;2.70;1.73;;;;;;;10.67;74.32;94394.09;4994405;28;20203;-80
2021/12/27 10:44:51;;;;;;;3.07;1.80;;;;;;;10.87;75.08;94394.00;4993487;28;20238;-80
2021/12/27 10:47:39;;;;;;;2.20;1.90;;;;;;;11.02;73.46;94389.34;4995348;28;20718;-80
2021/12/27 10:50:11;;;;;;;2.10;1.90;;;;;;;10.96;72.37;94390.19;4987570;28;20196;-79
2021/12/27 10:52:50;;;;;;;3.90;3.20;;;;;;;11.20;72.91;94370.59;4993329;28;20659;-80
2021/12/27 10:55:19;;;;;;;2.60;2.13;;;;;;;11.34;72.49;94370.31;4993476;28;20195;-80
2021/12/27 10:57:46;;;;;;;2.00;1.90;;;;;;;11.53;72.69;94371.13;4992748;28;20242;-79
2021/12/27 11:00:28;;;;;;;2.40;2.20;;;;;;;11.59;71.48;94369.47;4992999;28;20203;-80
2021/12/27 11:02:57;;;;;;;3.00;2.20;;;;;;;11.59;71.97;94359.94;4977108;28;20227;-79
2021/12/27 11:05:27;;;;;;;2.00;1.90;;;;;;;11.67;72.83;94353.75;4993231;28;20202;-80
2021/12/27 11:07:59;;;;;;;2.67;2.20;;;;;;;11.68;71.81;94350.16;4993669;28;20273;-80
2021/12/27 11:10:26;;;;;;;2.13;1.83;;;;;;;11.60;72.80;94345.28;4993937;28;20195;-80
2021/12/27 11:12:52;;;;;;;2.60;1.90;;;;;;;11.53;72.41;94342.78;4993852;28;20199;-80
2021/12/27 11:15:19;;;;;;;1.80;1.70;;;;;;;11.55;71.57;94334.81;4993659;28;20204;-80
2021/12/27 11:17:46;;;;;;;2.47;2.27;;;;;;;11.66;71.27;94334.13;4992485;28;20620;-80
2021/12/27 11:20:14;;;;;;;2.63;2.00;;;;;;;11.76;72.20;94319.75;4993045;28;20207;-80
2021/12/27 11:22:44;;;;;;;2.53;2.23;;;;;;;11.86;70.65;94321.84;4991898;28;20203;-80
2021/12/27 11:25:22;;;;;;;2.43;2.10;;;;;;;11.98;71.37;94314.94;4991716;28;20200;-80
2021/12/27 11:27:49;;;;;;;3.60;2.27;;;;;;;11.88;69.78;94301.00;4993071;28;20268;-80
2021/12/27 11:30:22;;;;;;;3.80;2.20;;;;;;;11.92;71.62;94299.56;4992152;28;20200;-80
2021/12/27 11:33:04;;;;;;;2.40;2.10;;;;;;;11.82;70.72;94307.00;4995611;28;20196;-80
2021/12/27 11:35:37;;;;;;;2.33;2.13;;;;;;;11.72;70.26;94294.59;4982893;28;20267;-80
2021/12/27 11:38:05;;;;;;;2.20;2.00;;;;;;;11.72;70.82;94279.91;4991134;28;20234;-80
2021/12/27 11:40:41;;;;;;;2.33;1.73;;;;;;;11.80;70.82;94280.66;4989658;28;20204;-80
2021/12/27 11:43:07;;;;;;;2.23;2.03;;;;;;;11.88;69.93;94275.22;4984496;28;20227;-79
2021/12/27 11:45:42;;;;;;;2.30;2.10;;;;;;;11.97;69.55;94274.69;4997665;28;20214;-81
2021/12/27 11:48:11;;;;;;;4.00;2.60;;;;;;;12.23;71.81;94273.56;4995791;28;20371;-79